createdAt,value
2018-03-18T00:00:26.541Z,21.40
2018-03-18T00:01:26.429Z,21.70
2018-03-18T00:02:26.384Z,22.80
2018-03-18T00:03:26.289Z,23.10
2018-03-18T00:04:26.234Z,22.20
2018-03-18T00:05:26.458Z,24.30
2018-03-18T00:06:26.177Z,23.60
2018-03-18T00:07:25.847Z,23.60
2018-03-18T00:08:25.783Z,23.00
2018-03-18T00:09:27.479Z,18.10
2018-03-18T00:10:25.649Z,22.60
2018-03-18T00:11:25.527Z,21.90
2018-03-18T00:12:25.313Z,20.40
2018-03-18T00:13:25.239Z,22.50
2018-03-18T00:14:25.226Z,20.80
2018-03-18T00:15:25.027Z,20.10
2018-03-18T00:16:24.953Z,22.90
2018-03-18T00:17:25.463Z,23.50
2018-03-18T00:18:24.791Z,20.50
2018-03-18T00:19:24.574Z,21.70
2018-03-18T00:20:24.505Z,19.70
2018-03-18T00:21:24.484Z,22.20
2018-03-18T00:22:24.319Z,22.90
2018-03-18T00:23:24.964Z,23.40
2018-03-18T00:24:24.083Z,21.10
2018-03-18T00:25:23.942Z,22.30
2018-03-18T00:26:23.822Z,23.10
2018-03-18T00:27:23.864Z,22.00
2018-03-18T00:28:23.709Z,22.80
2018-03-18T00:29:23.601Z,21.20
2018-03-18T00:30:23.484Z,23.60
2018-03-18T00:31:23.424Z,21.00
2018-03-18T00:32:23.424Z,22.10
2018-03-18T00:33:23.297Z,21.70
2018-03-18T00:34:23.059Z,23.60
2018-03-18T00:35:22.963Z,22.40
2018-03-18T00:36:22.837Z,19.50
2018-03-18T00:37:22.754Z,19.50
2018-03-18T00:38:23.459Z,21.00
2018-03-18T00:39:22.614Z,24.70
2018-03-18T00:40:22.473Z,20.30
2018-03-18T00:41:22.364Z,21.00
2018-03-18T00:42:22.964Z,23.50
2018-03-18T00:43:22.167Z,20.50
2018-03-18T00:44:22.314Z,21.90
2018-03-18T00:45:21.948Z,24.00
2018-03-18T00:46:22.462Z,23.50
2018-03-18T00:47:21.733Z,21.20
2018-03-18T00:48:22.461Z,22.20
2018-03-18T00:49:21.542Z,21.40
2018-03-18T00:50:21.640Z,22.80
2018-03-18T00:51:21.367Z,23.20
2018-03-18T00:52:21.412Z,23.00
2018-03-18T00:53:21.194Z,26.40
2018-03-18T00:54:21.135Z,23.20
2018-03-18T00:55:20.942Z,21.80
2018-03-18T00:56:20.902Z,21.20
2018-03-18T00:57:20.923Z,22.20
2018-03-18T00:58:20.633Z,21.60
2018-03-18T00:59:20.491Z,20.90
2018-03-18T01:00:20.414Z,22.60
2018-03-18T01:01:20.286Z,21.60
2018-03-18T01:02:20.253Z,21.70
2018-03-18T01:03:21.972Z,19.60
2018-03-18T01:04:19.997Z,22.40
2018-03-18T01:05:19.905Z,22.30
2018-03-18T01:06:21.460Z,22.60
2018-03-18T01:07:19.745Z,22.30
2018-03-18T01:08:19.651Z,20.60
2018-03-18T01:09:19.550Z,22.90
2018-03-18T01:10:19.469Z,21.30
2018-03-18T01:11:19.351Z,21.50
2018-03-18T01:12:19.195Z,21.60
2018-03-18T01:13:19.163Z,20.90
2018-03-18T01:14:19.066Z,21.30
2018-03-18T01:15:18.952Z,21.20
2018-03-18T01:16:18.796Z,23.20
2018-03-18T01:17:19.460Z,21.80
2018-03-18T01:18:18.571Z,21.00
2018-03-18T01:19:18.559Z,19.70
2018-03-18T01:20:18.389Z,21.90
2018-03-18T01:21:18.293Z,23.40
2018-03-18T01:22:18.128Z,21.00
2018-03-18T01:23:18.062Z,20.60
2018-03-18T01:24:18.461Z,23.00
2018-03-18T01:25:17.967Z,20.20
2018-03-18T01:26:17.778Z,22.20
2018-03-18T01:27:17.652Z,19.80
2018-03-18T01:28:17.619Z,21.90
2018-03-18T01:29:17.498Z,20.80
2018-03-18T01:30:17.374Z,21.70
2018-03-18T01:31:17.325Z,22.20
2018-03-18T01:32:17.167Z,20.30
2018-03-18T01:33:17.094Z,19.60
2018-03-18T01:34:16.896Z,18.80
2018-03-18T01:35:16.887Z,19.70
2018-03-18T01:36:17.461Z,21.10
2018-03-18T01:37:16.763Z,20.20
2018-03-18T01:38:16.541Z,19.80
2018-03-18T01:39:16.965Z,20.30
2018-03-18T01:40:16.413Z,20.50
2018-03-18T01:41:16.228Z,20.70
2018-03-18T01:42:16.131Z,20.20
2018-03-18T01:43:16.074Z,21.60
2018-03-18T01:44:15.929Z,21.40
2018-03-18T01:45:15.828Z,22.80
2018-03-18T01:46:16.462Z,18.00
2018-03-18T01:47:15.595Z,18.50
2018-03-18T01:48:15.504Z,21.10
2018-03-18T01:49:15.430Z,17.50
2018-03-18T01:50:15.348Z,19.70
2018-03-18T01:51:15.205Z,19.10
2018-03-18T01:52:15.963Z,20.00
2018-03-18T01:53:15.036Z,20.00
2018-03-18T01:54:14.923Z,22.10
2018-03-18T01:55:15.470Z,19.10
2018-03-18T01:56:14.926Z,17.30
2018-03-18T01:57:14.562Z,18.10
2018-03-18T01:58:14.517Z,18.70
2018-03-18T01:59:14.680Z,16.30
2018-03-18T02:00:14.976Z,20.10
2018-03-18T02:01:15.799Z,19.90
2018-03-18T02:02:17.584Z,18.70
2018-03-18T02:03:14.078Z,19.50
2018-03-18T02:04:13.953Z,19.50
2018-03-18T02:05:13.791Z,19.80
2018-03-18T02:06:14.463Z,19.20
2018-03-18T02:07:13.583Z,19.50
2018-03-18T02:08:13.416Z,16.50
2018-03-18T02:09:13.421Z,16.50
2018-03-18T02:10:13.291Z,18.50
2018-03-18T02:11:13.963Z,20.60
2018-03-18T02:12:13.104Z,19.90
2018-03-18T02:13:13.465Z,17.30
2018-03-18T02:14:12.859Z,19.50
2018-03-18T02:15:14.466Z,18.00
2018-03-18T02:16:14.463Z,17.80
2018-03-18T02:17:12.510Z,18.70
2018-03-18T02:18:12.963Z,18.80
2018-03-18T02:19:12.425Z,19.20
2018-03-18T02:20:12.230Z,19.50
2018-03-18T02:21:12.167Z,17.10
2018-03-18T02:22:12.090Z,20.20
2018-03-18T02:23:12.111Z,20.80
2018-03-18T02:24:12.050Z,16.90
2018-03-18T02:25:11.701Z,17.30
2018-03-18T02:26:11.668Z,17.60
2018-03-18T02:27:11.561Z,19.30
2018-03-18T02:28:11.415Z,18.90
2018-03-18T02:29:11.967Z,20.20
2018-03-18T02:30:11.304Z,16.90
2018-03-18T02:31:11.964Z,19.70
2018-03-18T02:32:11.038Z,19.20
2018-03-18T02:33:10.977Z,17.40
2018-03-18T02:34:10.877Z,18.80
2018-03-18T02:35:10.770Z,18.00
2018-03-18T02:36:10.599Z,18.50
2018-03-18T02:37:10.637Z,17.60
2018-03-18T02:38:10.963Z,19.00
2018-03-18T02:39:10.444Z,19.70
2018-03-18T02:40:10.205Z,17.60
2018-03-18T02:41:10.166Z,20.20
2018-03-18T02:42:09.980Z,17.10
2018-03-18T02:43:09.994Z,23.60
2018-03-18T02:44:10.463Z,20.60
2018-03-18T02:45:11.466Z,14.80
2018-03-18T02:46:10.463Z,19.50
2018-03-18T02:47:09.448Z,17.10
2018-03-18T02:48:09.484Z,19.20
2018-03-18T02:49:09.518Z,16.40
2018-03-18T02:50:09.143Z,18.10
2018-03-18T02:51:09.201Z,17.40
2018-03-18T02:52:09.170Z,18.40
2018-03-18T02:53:08.904Z,16.50
2018-03-18T02:54:08.736Z,17.60
2018-03-18T02:55:08.775Z,17.40
2018-03-18T02:56:09.465Z,18.50
2018-03-18T02:57:08.520Z,17.90
2018-03-18T02:58:08.366Z,18.60
2018-03-18T02:59:08.230Z,20.10
2018-03-18T03:00:08.165Z,20.20
2018-03-18T03:01:08.264Z,18.40
2018-03-18T03:02:08.010Z,16.90
2018-03-18T03:03:07.890Z,20.80
2018-03-18T03:04:07.800Z,18.40
2018-03-18T03:05:08.018Z,16.80
2018-03-18T03:06:09.466Z,16.60
2018-03-18T03:07:07.511Z,17.60
2018-03-18T03:08:07.363Z,16.30
2018-03-18T03:09:07.346Z,19.30
2018-03-18T03:10:10.468Z,18.20
2018-03-18T03:11:08.465Z,17.80
2018-03-18T03:12:06.878Z,15.80
2018-03-18T03:13:07.973Z,16.50
2018-03-18T03:14:06.635Z,18.80
2018-03-18T03:15:08.813Z,16.50
2018-03-18T03:16:07.883Z,18.70
2018-03-18T03:17:06.506Z,15.40
2018-03-18T03:18:06.273Z,17.60
2018-03-18T03:19:22.186Z,16.90
2018-03-18T03:20:07.053Z,18.50
2018-03-18T03:21:06.903Z,16.40
2018-03-18T03:29:54.710Z,19.40
2018-03-18T03:46:29.227Z,15.70
2018-03-18T04:00:46.617Z,15.20
2018-03-18T04:07:41.033Z,15.30
2018-03-18T04:08:41.096Z,17.10
2018-03-18T04:19:45.504Z,15.70
2018-03-18T04:20:45.453Z,16.40
2018-03-18T04:21:45.269Z,15.90
2018-03-18T04:32:32.752Z,15.70
2018-03-18T04:33:33.661Z,17.40
2018-03-18T04:34:34.246Z,15.80
2018-03-18T04:35:32.334Z,16.10
2018-03-18T04:36:34.305Z,17.20
2018-03-18T04:41:53.935Z,17.20
2018-03-18T05:25:39.624Z,14.80
2018-03-18T05:26:39.378Z,17.00
2018-03-18T05:55:09.805Z,17.50
2018-03-18T05:55:58.583Z,17.60
2018-03-18T05:56:58.512Z,13.90
2018-03-18T06:07:39.477Z,18.00
2018-03-18T06:08:41.501Z,23.80
2018-03-18T06:30:14.869Z,15.30
2018-03-18T06:31:14.421Z,14.90
2018-03-18T06:34:39.098Z,17.50
2018-03-18T06:35:30.200Z,16.60
2018-03-18T06:40:09.025Z,14.60
2018-03-18T06:51:47.854Z,14.40
2018-03-18T06:52:45.152Z,17.00
2018-03-18T07:02:07.894Z,14.70
2018-03-18T07:02:57.498Z,13.20
2018-03-18T07:03:56.725Z,14.90
2018-03-18T07:04:56.466Z,14.50
2018-03-18T07:10:26.341Z,16.30
2018-03-18T07:11:27.867Z,14.60
2018-03-18T07:12:27.704Z,13.90
2018-03-18T07:13:25.624Z,12.20
2018-03-18T07:14:25.523Z,14.30
2018-03-18T07:15:25.376Z,15.70
2018-03-18T07:16:25.532Z,13.00
2018-03-18T07:17:25.447Z,14.40
2018-03-18T07:18:25.069Z,13.60
2018-03-18T07:19:25.626Z,13.70
2018-03-18T07:20:25.011Z,13.90
2018-03-18T07:21:23.934Z,15.40
2018-03-18T07:22:23.925Z,14.40
2018-03-18T07:23:23.829Z,11.40
2018-03-18T07:24:23.631Z,17.30
2018-03-18T07:25:23.578Z,13.70
2018-03-18T07:26:23.495Z,14.30
2018-03-18T07:27:23.746Z,13.20
2018-03-18T07:31:08.987Z,12.90
2018-03-18T07:31:54.841Z,13.10
2018-03-18T07:32:54.637Z,13.50
2018-03-18T07:33:54.216Z,16.50
2018-03-18T07:34:54.900Z,12.20
2018-03-18T07:35:54.847Z,13.60
2018-03-18T07:36:54.866Z,13.50
2018-03-18T07:37:54.555Z,14.10
2018-03-18T07:38:54.543Z,14.80
2018-03-18T07:39:53.657Z,12.10
2018-03-18T07:40:54.086Z,13.60
2018-03-18T07:41:54.387Z,14.60
2018-03-18T07:42:54.883Z,13.50
2018-03-18T07:43:53.184Z,23.20
2018-03-18T07:44:53.032Z,34.90
2018-03-18T07:45:52.886Z,28.40
2018-03-18T07:46:52.912Z,20.10
2018-03-18T07:47:52.810Z,33.60
2018-03-18T07:48:52.917Z,21.30
2018-03-18T07:49:52.671Z,28.50
2018-03-18T07:50:52.538Z,22.10
2018-03-18T07:51:53.386Z,22.60
2018-03-18T07:52:52.573Z,16.50
2018-03-18T07:53:52.225Z,27.50
2018-03-18T07:54:52.203Z,28.30
2018-03-18T07:55:52.148Z,18.00
2018-03-18T07:56:51.868Z,23.60
2018-03-18T07:57:52.386Z,24.50
2018-03-18T07:58:54.398Z,25.00
2018-03-18T07:59:52.047Z,17.10
2018-03-18T08:00:51.601Z,14.10
2018-03-18T08:01:51.436Z,19.20
2018-03-18T08:02:51.254Z,15.90
2018-03-18T08:03:51.885Z,13.30
2018-03-18T08:04:51.037Z,13.50
2018-03-18T08:05:50.994Z,13.30
2018-03-18T08:06:50.969Z,14.30
2018-03-18T08:07:51.351Z,12.60
2018-03-18T08:08:50.668Z,13.20
2018-03-18T08:09:50.695Z,12.70
2018-03-18T08:10:50.468Z,14.20
2018-03-18T08:11:50.349Z,14.40
2018-03-18T08:12:50.301Z,14.50
2018-03-18T08:13:50.258Z,13.60
2018-03-18T08:14:50.182Z,14.00
2018-03-18T08:15:49.975Z,15.30
2018-03-18T08:16:49.948Z,14.40
2018-03-18T08:17:49.980Z,11.30
2018-03-18T08:18:49.693Z,13.20
2018-03-18T08:19:49.620Z,13.80
2018-03-18T08:20:49.460Z,12.80
2018-03-18T08:21:49.365Z,15.00
2018-03-18T08:22:49.335Z,13.60
2018-03-18T08:23:49.074Z,14.50
2018-03-18T08:24:49.179Z,12.40
2018-03-18T08:25:49.052Z,12.40
2018-03-18T08:26:49.061Z,12.90
2018-03-18T08:27:48.920Z,11.30
2018-03-18T08:28:48.626Z,10.90
2018-03-18T08:29:48.554Z,14.70
2018-03-18T08:30:48.477Z,13.10
2018-03-18T08:31:48.386Z,13.20
2018-03-18T08:32:48.249Z,13.40
2018-03-18T08:33:48.127Z,12.60
2018-03-18T08:34:48.083Z,12.20
2018-03-18T08:35:48.153Z,13.40
2018-03-18T08:36:47.848Z,11.00
2018-03-18T08:37:47.766Z,13.40
2018-03-18T08:38:47.599Z,13.20
2018-03-18T08:39:47.597Z,14.10
2018-03-18T08:40:47.460Z,11.70
2018-03-18T08:41:47.396Z,14.00
2018-03-18T08:42:47.276Z,14.00
2018-03-18T08:43:47.134Z,12.80
2018-03-18T08:44:47.028Z,12.00
2018-03-18T08:45:46.922Z,13.20
2018-03-18T08:46:46.829Z,12.80
2018-03-18T08:47:46.729Z,15.20
2018-03-18T08:48:46.669Z,14.40
2018-03-18T08:49:46.539Z,14.50
2018-03-18T08:50:46.526Z,13.70
2018-03-18T08:51:46.338Z,11.00
2018-03-18T08:52:46.291Z,17.10
2018-03-18T08:53:46.108Z,16.20
2018-03-18T08:54:46.076Z,16.60
2018-03-18T08:55:45.937Z,24.90
2018-03-18T08:56:45.891Z,40.80
2018-03-18T08:57:45.739Z,40.80
2018-03-18T08:58:45.669Z,30.60
2018-03-18T08:59:45.529Z,12.60
2018-03-18T09:00:45.462Z,31.60
2018-03-18T09:01:45.297Z,36.10
2018-03-18T09:02:45.189Z,16.70
2018-03-18T09:03:45.100Z,14.60
2018-03-18T09:04:45.014Z,16.30
2018-03-18T09:05:44.951Z,17.00
2018-03-18T09:06:44.858Z,12.60
2018-03-18T09:07:45.391Z,15.50
2018-03-18T09:08:44.642Z,15.30
2018-03-18T09:09:44.484Z,14.50
2018-03-18T09:10:44.377Z,19.60
2018-03-18T09:11:44.289Z,11.70
2018-03-18T09:12:44.257Z,14.20
2018-03-18T09:13:44.117Z,12.40
2018-03-18T09:14:44.020Z,11.00
2018-03-18T09:15:43.932Z,13.10
2018-03-18T09:16:43.787Z,12.90
2018-03-18T09:17:43.721Z,12.20
2018-03-18T09:18:43.669Z,12.40
2018-03-18T09:19:43.526Z,12.10
2018-03-18T09:20:43.428Z,12.80
2018-03-18T09:21:43.329Z,12.70
2018-03-18T09:22:43.271Z,14.00
2018-03-18T09:23:43.132Z,12.50
2018-03-18T09:24:43.086Z,13.10
2018-03-18T09:25:43.027Z,12.50
2018-03-18T09:26:42.849Z,20.00
2018-03-18T09:27:42.744Z,28.60
2018-03-18T09:28:42.635Z,27.00
2018-03-18T09:29:42.548Z,23.60
2018-03-18T09:30:42.465Z,22.70
2018-03-18T09:31:42.332Z,31.50
2018-03-18T09:32:42.245Z,28.40
2018-03-18T09:33:42.895Z,28.60
2018-03-18T09:34:42.891Z,20.30
2018-03-18T09:35:41.933Z,31.10
2018-03-18T09:36:41.872Z,18.20
2018-03-18T09:37:41.731Z,14.40
2018-03-18T09:38:41.632Z,13.30
2018-03-18T09:39:41.550Z,13.30
2018-03-18T09:40:41.403Z,12.30
2018-03-18T09:41:41.358Z,11.30
2018-03-18T09:42:41.325Z,12.80
2018-03-18T09:43:41.129Z,11.10
2018-03-18T09:44:41.050Z,12.60
2018-03-18T09:45:40.933Z,11.40
2018-03-18T09:46:40.848Z,12.10
2018-03-18T09:47:40.777Z,11.40
2018-03-18T09:48:40.694Z,12.70
2018-03-18T09:49:40.592Z,10.70
2018-03-18T09:50:40.554Z,14.00
2018-03-18T09:51:40.375Z,10.50
2018-03-18T09:52:40.893Z,14.00
2018-03-18T09:53:40.145Z,12.30
2018-03-18T09:54:40.140Z,15.50
2018-03-18T09:55:40.895Z,10.00
2018-03-18T09:56:39.849Z,11.60
2018-03-18T09:57:39.746Z,10.90
2018-03-18T09:58:39.675Z,12.60
2018-03-18T09:59:39.577Z,13.20
2018-03-18T10:00:39.517Z,11.10
2018-03-18T10:01:39.397Z,12.20
2018-03-18T10:02:39.243Z,9.90
2018-03-18T10:03:39.160Z,10.20
2018-03-18T10:04:39.104Z,10.70
2018-03-18T10:05:38.981Z,12.50
2018-03-18T10:06:38.917Z,12.40
2018-03-18T10:07:38.788Z,12.20
2018-03-18T10:08:38.692Z,11.10
2018-03-18T10:09:38.599Z,10.90
2018-03-18T10:10:38.525Z,21.50
2018-03-18T10:11:38.477Z,13.70
2018-03-18T10:12:38.358Z,14.50
2018-03-18T10:13:38.226Z,10.90
2018-03-18T10:14:38.113Z,13.10
2018-03-18T10:15:38.004Z,12.60
2018-03-18T10:16:37.903Z,13.80
2018-03-18T10:17:37.837Z,17.10
2018-03-18T10:18:37.759Z,12.30
2018-03-18T10:19:37.610Z,13.80
2018-03-18T10:20:37.510Z,13.80
2018-03-18T10:21:37.433Z,14.60
2018-03-18T10:22:37.349Z,14.70
2018-03-18T10:23:37.222Z,12.80
2018-03-18T10:24:37.190Z,14.50
2018-03-18T10:25:37.002Z,9.60
2018-03-18T10:26:36.928Z,11.00
2018-03-18T10:27:36.842Z,13.10
2018-03-18T10:28:36.748Z,11.40
2018-03-18T10:29:36.711Z,11.00
2018-03-18T10:30:36.647Z,11.60
2018-03-18T10:31:36.453Z,15.70
2018-03-18T10:32:36.461Z,13.80
2018-03-18T10:33:36.352Z,26.00
2018-03-18T10:34:36.307Z,26.50
2018-03-18T10:35:36.260Z,61.60
2018-03-18T10:36:36.261Z,75.60
2018-03-18T10:37:36.528Z,34.60
2018-03-18T10:38:36.891Z,36.60
2018-03-18T10:39:35.801Z,43.80
2018-03-18T10:40:35.599Z,36.20
2018-03-18T10:41:35.522Z,33.80
2018-03-18T10:42:35.478Z,65.30
2018-03-18T10:43:35.333Z,64.10
2018-03-18T10:44:35.233Z,31.50
2018-03-18T10:45:35.110Z,50.80
2018-03-18T10:46:35.030Z,39.90
2018-03-18T10:47:34.942Z,22.80
2018-03-18T10:48:34.914Z,21.90
2018-03-18T10:49:34.767Z,30.40
2018-03-18T10:50:34.673Z,38.30
2018-03-18T10:51:34.557Z,24.70
2018-03-18T10:52:34.473Z,20.10
2018-03-18T10:53:34.393Z,13.30
2018-03-18T10:54:34.344Z,18.70
2018-03-18T10:55:34.142Z,12.30
2018-03-18T10:56:34.083Z,11.10
2018-03-18T10:57:33.946Z,12.10
2018-03-18T10:58:33.900Z,10.80
2018-03-18T10:59:33.748Z,10.10
2018-03-18T11:00:33.694Z,8.50
2018-03-18T11:01:33.580Z,9.10
2018-03-18T11:02:33.548Z,11.70
2018-03-18T11:03:33.396Z,9.30
2018-03-18T11:04:33.294Z,10.60
2018-03-18T11:05:33.225Z,10.50
2018-03-18T11:06:33.177Z,8.00
2018-03-18T11:07:33.022Z,11.90
2018-03-18T11:08:32.924Z,12.80
2018-03-18T11:09:32.811Z,11.70
2018-03-18T11:10:32.745Z,10.80
2018-03-18T11:11:32.615Z,10.70
2018-03-18T11:12:32.668Z,11.50
2018-03-18T11:13:32.448Z,10.10
2018-03-18T11:14:32.329Z,11.00
2018-03-18T11:15:32.282Z,11.00
2018-03-18T11:16:32.139Z,11.60
2018-03-18T11:17:32.037Z,11.30
2018-03-18T11:18:31.980Z,9.90
2018-03-18T11:19:31.838Z,10.70
2018-03-18T11:20:31.766Z,9.10
2018-03-18T11:21:31.664Z,10.50
2018-03-18T11:22:31.568Z,11.10
2018-03-18T11:23:31.450Z,12.70
2018-03-18T11:24:31.483Z,12.80
2018-03-18T11:25:31.306Z,25.40
2018-03-18T11:26:31.195Z,14.80
2018-03-18T11:27:31.095Z,14.60
2018-03-18T11:28:31.029Z,13.50
2018-03-18T11:29:30.948Z,12.70
2018-03-18T11:30:30.870Z,19.00
2018-03-18T11:31:30.736Z,14.00
2018-03-18T11:32:30.634Z,11.90
2018-03-18T11:33:30.543Z,19.50
2018-03-18T11:34:30.437Z,14.70
2018-03-18T11:35:30.343Z,13.00
2018-03-18T11:36:30.304Z,11.70
2018-03-18T11:37:30.163Z,20.90
2018-03-18T11:38:30.060Z,16.90
2018-03-18T11:39:30.016Z,20.00
2018-03-18T11:40:29.890Z,15.70
2018-03-18T11:41:29.770Z,19.40
2018-03-18T11:42:29.767Z,15.60
2018-03-18T11:43:29.548Z,17.40
2018-03-18T11:44:29.497Z,17.40
2018-03-18T11:45:29.381Z,15.00
2018-03-18T11:46:29.268Z,12.80
2018-03-18T11:47:29.191Z,12.50
2018-03-18T11:48:29.135Z,11.30
2018-03-18T11:49:29.017Z,12.90
2018-03-18T11:50:28.876Z,13.10
2018-03-18T11:51:28.808Z,11.20
2018-03-18T11:52:28.722Z,14.10
2018-03-18T11:53:28.655Z,9.90
2018-03-18T11:54:28.568Z,11.20
2018-03-18T11:55:28.443Z,11.80
2018-03-18T11:56:28.338Z,11.00
2018-03-18T11:57:28.210Z,12.60
2018-03-18T11:58:28.143Z,9.50
2018-03-18T11:59:28.060Z,9.60
2018-03-18T12:00:28.028Z,11.70
2018-03-18T12:01:27.848Z,10.50
2018-03-18T12:02:27.778Z,10.60
2018-03-18T12:03:27.703Z,12.00
2018-03-18T12:04:27.561Z,11.20
2018-03-18T12:05:27.500Z,11.90
2018-03-18T12:06:27.483Z,9.10
2018-03-18T12:07:27.257Z,9.10
2018-03-18T12:08:27.195Z,11.20
2018-03-18T12:09:27.082Z,8.70
2018-03-18T12:10:26.965Z,10.90
2018-03-18T12:11:26.871Z,10.70
2018-03-18T12:12:26.808Z,11.10
2018-03-18T12:13:26.689Z,10.70
2018-03-18T12:14:26.585Z,10.10
2018-03-18T12:15:26.476Z,14.80
2018-03-18T12:16:26.380Z,7.90
2018-03-18T12:17:26.329Z,8.70
2018-03-18T12:18:26.240Z,9.00
2018-03-18T12:19:26.191Z,9.20
2018-03-18T12:20:26.033Z,10.30
2018-03-18T12:21:25.955Z,10.00
2018-03-18T12:22:25.834Z,10.00
2018-03-18T12:23:25.731Z,10.00
2018-03-18T12:24:25.686Z,9.50
2018-03-18T12:25:25.592Z,9.30
2018-03-18T12:26:25.462Z,11.60
2018-03-18T12:27:25.378Z,10.90
2018-03-18T12:28:25.246Z,7.70
2018-03-18T12:29:25.160Z,11.10
2018-03-18T12:30:25.124Z,10.60
2018-03-18T12:31:24.939Z,11.10
2018-03-18T12:32:24.853Z,10.40
2018-03-18T12:33:24.756Z,11.30
2018-03-18T12:34:24.685Z,8.60
2018-03-18T12:35:24.546Z,11.10
2018-03-18T12:36:24.537Z,9.60
2018-03-18T12:37:24.367Z,9.10
2018-03-18T12:38:24.261Z,8.70
2018-03-18T12:39:24.168Z,11.80
2018-03-18T12:40:24.113Z,8.90
2018-03-18T12:41:23.948Z,8.80
2018-03-18T12:42:23.923Z,9.40
2018-03-18T12:43:23.775Z,10.40
2018-03-18T12:44:23.710Z,11.10
2018-03-18T12:45:23.616Z,11.30
2018-03-18T12:46:23.486Z,9.50
2018-03-18T12:47:23.434Z,10.70
2018-03-18T12:48:23.365Z,10.00
2018-03-18T12:49:23.240Z,10.90
2018-03-18T12:50:23.183Z,11.20
2018-03-18T12:51:23.163Z,11.20
2018-03-18T12:52:22.972Z,11.70
2018-03-18T12:53:22.842Z,8.00
2018-03-18T12:54:23.603Z,9.90
2018-03-18T12:55:22.629Z,8.10
2018-03-18T12:56:22.539Z,10.90
2018-03-18T12:57:22.547Z,14.00
2018-03-18T12:58:22.369Z,11.50
2018-03-18T12:59:22.277Z,9.60
2018-03-18T13:00:22.176Z,13.30
2018-03-18T13:01:22.045Z,9.10
2018-03-18T13:02:21.949Z,7.70
2018-03-18T13:03:21.997Z,7.80
2018-03-18T13:04:21.782Z,9.70
2018-03-18T13:05:21.701Z,8.30
2018-03-18T13:06:21.637Z,12.90
2018-03-18T13:07:21.507Z,9.00
2018-03-18T13:08:21.360Z,8.40
2018-03-18T13:09:21.310Z,9.70
2018-03-18T13:10:21.199Z,10.60
2018-03-18T13:11:21.094Z,10.70
2018-03-18T13:12:21.124Z,8.00
2018-03-18T13:13:20.909Z,8.90
2018-03-18T13:14:20.792Z,12.10
2018-03-18T13:15:20.753Z,10.40
2018-03-18T13:16:20.638Z,12.60
2018-03-18T13:17:20.529Z,8.90
2018-03-18T13:18:21.097Z,11.40
2018-03-18T13:19:20.391Z,10.00
2018-03-18T13:20:20.296Z,9.70
2018-03-18T13:21:20.112Z,17.30
2018-03-18T13:22:20.033Z,14.80
2018-03-18T13:23:19.914Z,23.80
2018-03-18T13:24:20.023Z,13.90
2018-03-18T13:25:19.720Z,16.90
2018-03-18T13:26:19.629Z,13.10
2018-03-18T13:27:19.529Z,21.50
2018-03-18T13:28:19.435Z,21.60
2018-03-18T13:29:19.329Z,26.60
2018-03-18T13:30:19.291Z,36.50
2018-03-18T13:31:19.253Z,20.00
2018-03-18T13:32:19.066Z,17.30
2018-03-18T13:33:18.962Z,33.60
2018-03-18T13:34:18.858Z,12.70
2018-03-18T13:35:18.765Z,14.80
2018-03-18T13:36:18.731Z,14.30
2018-03-18T13:37:18.704Z,12.30
2018-03-18T13:38:18.578Z,17.50
2018-03-18T13:39:18.416Z,11.10
2018-03-18T13:40:18.315Z,11.20
2018-03-18T13:41:18.171Z,8.60
2018-03-18T13:42:18.133Z,12.30
2018-03-18T13:43:17.994Z,8.90
2018-03-18T13:44:17.916Z,8.90
2018-03-18T13:45:17.792Z,11.80
2018-03-18T13:46:17.677Z,8.70
2018-03-18T13:47:17.592Z,8.80
2018-03-18T13:48:17.539Z,9.30
2018-03-18T13:49:17.429Z,8.50
2018-03-18T13:50:17.323Z,11.20
2018-03-18T13:51:17.307Z,9.80
2018-03-18T13:52:17.117Z,10.30
2018-03-18T13:53:17.009Z,10.50
2018-03-18T13:54:16.980Z,7.60
2018-03-18T13:55:16.826Z,9.40
2018-03-18T13:56:16.718Z,12.30
2018-03-18T13:57:16.633Z,12.10
2018-03-18T13:58:16.566Z,8.30
2018-03-18T13:59:16.442Z,11.50
2018-03-18T14:00:16.424Z,12.70
2018-03-18T14:01:16.284Z,10.10
2018-03-18T14:02:16.158Z,9.10
2018-03-18T14:03:16.152Z,9.40
2018-03-18T14:04:15.977Z,8.60
2018-03-18T14:05:15.877Z,11.30
2018-03-18T14:06:15.830Z,10.80
2018-03-18T14:07:15.637Z,9.10
2018-03-18T14:08:15.557Z,9.90
2018-03-18T14:09:15.474Z,11.10
2018-03-18T14:10:15.353Z,11.00
2018-03-18T14:11:15.273Z,9.40
2018-03-18T14:12:15.256Z,8.90
2018-03-18T14:13:15.088Z,8.00
2018-03-18T14:14:14.954Z,8.80
2018-03-18T14:15:14.886Z,9.50
2018-03-18T14:16:14.813Z,11.10
2018-03-18T14:17:14.690Z,11.00
2018-03-18T14:18:14.636Z,10.60
2018-03-18T14:19:14.518Z,10.00
2018-03-18T14:20:14.401Z,8.10
2018-03-18T14:21:14.358Z,10.70
2018-03-18T14:22:14.242Z,9.70
2018-03-18T14:23:14.108Z,9.20
2018-03-18T14:24:14.126Z,8.10
2018-03-18T14:25:13.943Z,10.10
2018-03-18T14:26:13.836Z,7.10
2018-03-18T14:27:13.795Z,10.30
2018-03-18T14:28:13.649Z,10.10
2018-03-18T14:29:13.594Z,7.80
2018-03-18T14:30:13.477Z,10.50
2018-03-18T14:31:13.317Z,9.70
2018-03-18T14:32:13.233Z,10.60
2018-03-18T14:33:13.109Z,8.60
2018-03-18T14:34:13.054Z,10.70
2018-03-18T14:35:12.927Z,8.30
2018-03-18T14:36:12.866Z,8.70
2018-03-18T14:37:12.727Z,7.20
2018-03-18T14:38:12.650Z,8.70
2018-03-18T14:39:12.530Z,8.70
2018-03-18T14:40:12.479Z,7.10
2018-03-18T14:41:12.327Z,9.10
2018-03-18T14:42:13.106Z,11.20
2018-03-18T14:43:12.173Z,19.60
2018-03-18T14:44:12.077Z,16.80
2018-03-18T14:45:11.959Z,46.20
2018-03-18T14:46:11.899Z,23.20
2018-03-18T14:47:11.792Z,7.90
2018-03-18T14:48:11.731Z,15.30
2018-03-18T14:49:11.554Z,11.00
2018-03-18T14:50:11.483Z,13.40
2018-03-18T14:51:11.436Z,12.20
2018-03-18T14:52:11.252Z,14.40
2018-03-18T14:53:11.179Z,13.50
2018-03-18T14:54:11.163Z,7.60
2018-03-18T14:55:10.962Z,8.90
2018-03-18T14:56:10.861Z,8.20
2018-03-18T14:57:10.759Z,10.20
2018-03-18T14:58:10.685Z,8.70
2018-03-18T14:59:10.565Z,9.70
2018-03-18T15:00:10.542Z,8.40
2018-03-18T15:01:10.418Z,9.60
2018-03-18T15:02:10.271Z,8.40
2018-03-18T15:03:10.193Z,9.20
2018-03-18T15:04:10.102Z,8.70
2018-03-18T15:05:10.021Z,7.10
2018-03-18T15:06:09.985Z,9.10
2018-03-18T15:07:09.796Z,7.20
2018-03-18T15:08:09.730Z,8.10
2018-03-18T15:09:09.605Z,8.70
2018-03-18T15:10:09.521Z,11.10
2018-03-18T15:11:09.395Z,9.80
2018-03-18T15:12:09.355Z,8.80
2018-03-18T15:13:09.198Z,10.90
2018-03-18T15:14:09.127Z,9.80
2018-03-18T15:15:09.024Z,7.10
2018-03-18T15:16:08.933Z,8.30
2018-03-18T15:17:08.792Z,10.00
2018-03-18T15:18:08.774Z,13.30
2018-03-18T15:19:08.641Z,10.60
2018-03-18T15:20:08.582Z,11.50
2018-03-18T15:21:08.473Z,9.00
2018-03-18T15:22:08.344Z,10.20
2018-03-18T15:23:08.214Z,7.30
2018-03-18T15:24:08.153Z,10.50
2018-03-18T15:25:08.044Z,11.20
2018-03-18T15:26:07.915Z,9.50
2018-03-18T15:27:07.863Z,15.20
2018-03-18T15:28:07.730Z,10.20
2018-03-18T15:29:07.630Z,8.30
2018-03-18T15:30:07.590Z,9.30
2018-03-18T15:31:07.495Z,8.30
2018-03-18T15:32:07.359Z,9.90
2018-03-18T15:33:07.229Z,11.50
2018-03-18T15:34:07.161Z,10.50
2018-03-18T15:35:07.065Z,15.80
2018-03-18T15:36:07.037Z,15.80
2018-03-18T15:37:06.840Z,12.60
2018-03-18T15:38:06.775Z,15.80
2018-03-18T15:39:06.666Z,13.20
2018-03-18T15:40:06.577Z,11.60
2018-03-18T15:41:06.481Z,16.50
2018-03-18T15:42:06.396Z,15.90
2018-03-18T15:43:06.302Z,16.80
2018-03-18T15:44:06.201Z,13.50
2018-03-18T15:45:06.097Z,11.80
2018-03-18T15:46:05.954Z,12.20
2018-03-18T15:47:05.880Z,11.70
2018-03-18T15:48:05.868Z,13.50
2018-03-18T15:49:05.651Z,10.00
2018-03-18T15:50:05.574Z,11.50
2018-03-18T15:51:05.462Z,8.70
2018-03-18T15:52:05.392Z,9.60
2018-03-18T15:53:05.290Z,7.30
2018-03-18T15:54:05.257Z,8.10
2018-03-18T15:55:05.125Z,9.00
2018-03-18T15:56:05.031Z,9.10
2018-03-18T15:57:04.915Z,12.00
2018-03-18T15:58:04.770Z,12.20
2018-03-18T15:59:04.697Z,8.90
2018-03-18T16:00:04.622Z,9.20
2018-03-18T16:01:04.504Z,8.80
2018-03-18T16:02:04.371Z,10.90
2018-03-18T16:03:04.281Z,9.00
2018-03-18T16:04:04.171Z,10.10
2018-03-18T16:05:04.084Z,11.80
2018-03-18T16:06:04.022Z,12.00
2018-03-18T16:07:03.919Z,9.20
2018-03-18T16:08:03.756Z,12.00
2018-03-18T16:09:03.687Z,9.60
2018-03-18T16:10:03.620Z,13.80
2018-03-18T16:11:03.569Z,10.10
2018-03-18T16:12:03.474Z,11.40
2018-03-18T16:13:03.323Z,11.40
2018-03-18T16:14:03.225Z,12.40